Time;durP1;ratioP1;P1;durP2;ratioP2;P2;SDS_P1;SDS_P2;PMS_P1;PMS_P2;Temp;Humidity;BMP_temperature;BMP_pressure;BME280_temperature;BME280_humidity;BME280_pressure;Samples;Min_cycle;Max_cycle;Signal;HPM_P1;HPM_P2
2022/08/04 00:00:17;;;;;;;26.80;12.80;;;19.80;99.90;;;;;;5036073;28;20186;-70
2022/08/04 00:03:10;;;;;;;23.90;13.18;;;19.60;99.90;;;;;;5036302;28;20783;-72
2022/08/04 00:06:00;;;;;;;21.58;12.43;;;19.60;99.90;;;;;;5002159;28;20052;-69
2022/08/04 00:08:37;;;;;;;26.58;13.80;;;19.50;99.90;;;;;;5001133;28;20528;-69
2022/08/04 00:11:05;;;;;;;24.17;13.23;;;19.50;99.90;;;;;;5034698;28;20045;-70
2022/08/04 00:13:41;;;;;;;27.75;13.27;;;19.60;99.90;;;;;;5038392;28;20135;-70
2022/08/04 00:16:09;;;;;;;27.35;13.38;;;19.50;99.90;;;;;;5014718;28;20053;-72
2022/08/04 00:18:49;;;;;;;22.20;12.75;;;19.70;99.90;;;;;;5036388;28;20053;-70
2022/08/04 00:21:17;;;;;;;23.35;12.60;;;19.80;99.90;;;;;;5037777;28;20055;-70
2022/08/04 00:23:44;;;;;;;27.20;13.65;;;19.60;99.90;;;;;;5037135;28;20071;-70
2022/08/04 00:26:10;;;;;;;26.10;14.18;;;19.60;99.90;;;;;;5018077;28;20136;-69
2022/08/04 00:28:37;;;;;;;28.40;15.05;;;19.70;99.90;;;;;;5037013;28;20142;-70
2022/08/04 00:31:13;;;;;;;21.75;13.85;;;19.70;99.90;;;;;;5038168;28;20253;-70
2022/08/04 00:33:39;;;;;;;30.20;15.20;;;19.80;99.90;;;;;;5021022;28;20080;-71
2022/08/04 00:36:05;;;;;;;27.55;15.25;;;19.60;99.90;;;;;;5039777;28;20036;-70
2022/08/04 00:38:32;;;;;;;30.27;15.15;;;19.60;99.90;;;;;;5038294;28;20082;-70
2022/08/04 00:41:29;;;;;;;30.13;16.73;;;19.50;99.90;;;;;;5018579;28;20048;-70
2022/08/04 00:44:16;;;;;;;37.25;17.25;;;19.60;99.90;;;;;;5039520;28;20033;-71
2022/08/04 00:47:26;;;;;;;31.70;16.73;;;19.70;99.90;;;;;;5037835;28;20053;-71
2022/08/04 00:50:23;;;;;;;28.70;16.20;;;19.70;99.90;;;;;;5037620;28;20056;-70
2022/08/04 00:53:10;;;;;;;28.83;17.05;;;19.50;99.90;;;;;;5036618;28;20309;-70
2022/08/04 00:55:38;;;;;;;33.25;16.67;;;19.60;99.90;;;;;;5036970;28;20647;-72
2022/08/04 00:58:22;;;;;;;36.78;17.83;;;19.50;99.90;;;;;;5037196;28;20044;-71
2022/08/04 01:01:03;;;;;;;37.10;18.02;;;19.50;99.90;;;;;;5035140;28;20787;-71
2022/08/04 01:03:58;;;;;;;34.72;18.85;;;19.50;99.90;;;;;;5019644;28;20724;-70
2022/08/04 01:06:43;;;;;;;29.00;18.55;;;19.40;99.90;;;;;;5032298;28;20764;-72
2022/08/04 01:09:53;;;;;;;37.22;19.67;;;19.40;99.90;;;;;;5036306;28;20040;-70
2022/08/04 01:12:51;;;;;;;37.17;19.67;;;19.40;99.90;;;;;;4964638;28;20415;-71
2022/08/04 01:15:30;;;;;;;33.92;19.17;;;19.50;99.90;;;;;;4867000;28;20434;-69
2022/08/04 01:18:07;;;;;;;39.38;20.70;;;19.40;99.90;;;;;;5013734;28;20342;-70
2022/08/04 01:20:44;;;;;;;39.08;18.92;;;19.50;99.90;;;;;;5033013;28;20539;-70
2022/08/04 01:23:48;;;;;;;34.08;19.50;;;19.50;99.90;;;;;;5018096;28;20041;-72
2022/08/04 01:26:33;;;;;;;;;;;19.40;99.90;;;;;;5031003;28;20041;-72
2022/08/04 01:29:08;;;;;;;39.28;20.48;;;19.50;99.90;;;;;;5035122;28;20038;-70
2022/08/04 01:31:37;;;;;;;38.00;20.60;;;19.40;99.90;;;;;;5018094;28;20075;-70
2022/08/04 01:34:08;;;;;;;35.15;19.63;;;19.40;99.90;;;;;;5016785;28;20714;-71
2022/08/04 01:36:34;;;;;;;41.28;19.00;;;19.30;99.90;;;;;;5035810;28;20954;-69
2022/08/04 01:39:39;;;;;;;40.20;19.92;;;19.50;99.90;;;;;;5036250;28;20720;-70
2022/08/04 01:41:48;;;;;;;29.75;18.63;;;19.20;99.90;;;;;;5035414;28;20124;-71
2022/08/04 01:44:15;;;;;;;37.15;18.70;;;19.40;99.90;;;;;;5034433;28;20714;-69
2022/08/04 01:46:41;;;;;;;36.30;18.92;;;19.50;99.90;;;;;;5031965;28;20625;-69
2022/08/04 01:49:09;;;;;;;34.08;17.65;;;19.40;99.90;;;;;;5033109;28;20044;-69
2022/08/04 01:51:39;;;;;;;41.17;20.02;;;19.50;99.90;;;;;;5037560;28;20044;-69
2022/08/04 01:54:06;;;;;;;38.65;18.98;;;19.40;99.90;;;;;;5014037;28;20037;-72
2022/08/04 01:56:32;;;;;;;38.60;18.88;;;19.50;99.90;;;;;;5034380;28;20102;-70
2022/08/04 01:59:01;;;;;;;36.17;19.30;;;19.30;99.90;;;;;;5036020;28;20044;-69
2022/08/04 02:01:27;;;;;;;33.33;18.85;;;19.40;99.90;;;;;;5014902;28;20561;-69
2022/08/04 02:03:53;;;;;;;35.80;19.48;;;19.30;99.90;;;;;;5034364;28;20521;-70
2022/08/04 02:06:44;;;;;;;32.45;18.35;;;19.30;99.90;;;;;;5030634;28;20142;-70
2022/08/04 02:09:37;;;;;;;36.20;19.25;;;19.50;99.90;;;;;;5030068;28;20052;-71
2022/08/04 02:12:13;;;;;;;34.80;18.63;;;19.30;99.90;;;;;;5036111;28;20079;-70
2022/08/04 02:15:06;;;;;;;37.25;19.95;;;19.30;99.90;;;;;;5034925;28;20543;-71
2022/08/04 02:17:48;;;;;;;30.00;18.67;;;19.20;99.90;;;;;;5021004;28;20558;-70
2022/08/04 02:20:24;;;;;;;36.13;19.05;;;19.20;99.90;;;;;;5019408;28;20584;-70
2022/08/04 02:23:14;;;;;;;38.60;19.15;;;19.20;99.90;;;;;;5039803;28;20052;-70
2022/08/04 02:25:47;;;;;;;39.30;18.20;;;19.30;99.90;;;;;;5042277;28;20044;-69
2022/08/04 02:28:34;;;;;;;36.90;18.40;;;19.40;99.90;;;;;;5035516;28;20135;-70
2022/08/04 02:31:21;;;;;;;35.40;17.35;;;19.40;99.90;;;;;;5035582;28;21131;-69
2022/08/04 02:34:08;;;;;;;32.97;17.60;;;19.40;99.90;;;;;;5039257;28;20053;-71
2022/08/04 02:36:37;;;;;;;33.90;16.85;;;19.40;99.90;;;;;;5018432;28;20495;-71
2022/08/04 02:39:05;;;;;;;31.88;16.52;;;19.30;99.90;;;;;;5017981;28;20033;-71
2022/08/04 02:41:32;;;;;;;29.35;16.55;;;19.50;99.90;;;;;;5006276;28;20147;-69
2022/08/04 02:44:01;;;;;;;31.90;16.52;;;19.30;99.90;;;;;;5017740;28;20049;-71
2022/08/04 02:46:27;;;;;;;27.42;15.93;;;19.50;99.90;;;;;;5019880;28;20664;-69
2022/08/04 02:48:54;;;;;;;30.90;16.45;;;19.40;99.90;;;;;;5022783;28;20677;-70
2022/08/04 02:51:28;;;;;;;29.35;16.92;;;19.30;99.90;;;;;;5017909;28;20041;-69
2022/08/04 02:53:56;;;;;;;27.23;15.73;;;19.50;99.90;;;;;;5036337;28;20221;-70
2022/08/04 02:56:24;;;;;;;31.83;15.38;;;19.50;99.90;;;;;;5015735;28;20056;-71
2022/08/04 02:59:03;;;;;;;29.65;16.08;;;19.50;99.90;;;;;;5021916;28;20616;-70
2022/08/04 03:01:29;;;;;;;30.67;15.65;;;19.40;99.90;;;;;;5017396;28;20520;-70
2022/08/04 03:04:16;;;;;;;29.70;16.42;;;19.50;99.90;;;;;;5036126;28;20048;-69
2022/08/04 03:07:06;;;;;;;29.38;16.75;;;19.40;99.90;;;;;;5037217;28;20624;-71
2022/08/04 03:09:51;;;;;;;30.95;15.73;;;19.50;99.90;;;;;;5036370;28;20044;-71
2022/08/04 03:13:12;;;;;;;31.05;16.73;;;19.60;99.90;;;;;;5020908;28;20051;-71
2022/08/04 03:16:00;;;;;;;35.00;17.23;;;19.40;99.90;;;;;;4934955;28;20806;-70
2022/08/04 03:19:02;;;;;;;27.33;15.57;;;19.50;99.90;;;;;;4954343;28;20740;-71
2022/08/04 03:22:07;;;;;;;26.88;15.63;;;19.40;99.90;;;;;;5020489;28;21085;-70
2022/08/04 03:25:10;;;;;;;29.13;15.35;;;19.40;99.90;;;;;;5019115;28;20060;-69
2022/08/04 03:27:59;;;;;;;31.90;16.13;;;19.50;99.90;;;;;;5016665;28;20056;-71
2022/08/04 03:30:46;;;;;;;27.67;16.38;;;19.40;99.90;;;;;;5016176;28;20041;-70
2022/08/04 03:33:26;;;;;;;32.80;16.20;;;19.50;99.90;;;;;;5019714;28;20076;-69
2022/08/04 03:35:58;;;;;;;27.05;16.05;;;19.40;99.90;;;;;;5013680;28;20120;-70
2022/08/04 03:39:02;;;;;;;37.28;16.55;;;19.40;99.90;;;;;;5037166;28;20052;-71
2022/08/04 03:41:55;;;;;;;34.33;17.25;;;19.40;99.90;;;;;;4929210;28;20171;-69
2022/08/04 03:45:05;;;;;;;35.67;18.58;;;19.40;99.90;;;;;;5035212;28;20135;-69
2022/08/04 03:47:55;;;;;;;33.30;17.55;;;19.40;99.90;;;;;;5039293;28;20159;-70
2022/08/04 03:50:40;;;;;;;31.10;18.38;;;19.30;99.90;;;;;;5034640;28;20041;-69
2022/08/04 03:53:34;;;;;;;30.58;16.88;;;19.20;99.90;;;;;;5034607;28;20132;-70
2022/08/04 03:56:15;;;;;;;;;;;19.10;99.90;;;;;;5038838;28;20587;-69
2022/08/04 03:59:25;;;;;;;30.15;17.25;;;19.00;99.90;;;;;;5018403;28;19916;-69
2022/08/04 04:02:09;;;;;;;29.88;17.13;;;19.00;99.90;;;;;;5037459;28;20071;-70
2022/08/04 04:04:59;;;;;;;32.65;17.60;;;19.10;99.90;;;;;;5036806;28;20041;-71
2022/08/04 04:07:47;;;;;;;29.63;17.73;;;19.00;99.90;;;;;;5037285;28;20782;-70
2022/08/04 04:10:37;;;;;;;31.92;18.83;;;18.90;99.90;;;;;;5034616;28;20044;-71
2022/08/04 04:13:28;;;;;;;33.47;18.80;;;19.10;99.90;;;;;;5019977;28;20102;-70
2022/08/04 04:16:24;;;;;;;28.10;17.63;;;18.90;99.90;;;;;;5018233;28;20081;-71
2022/08/04 04:19:19;;;;;;;28.75;18.17;;;19.00;99.90;;;;;;5018287;28;20052;-70
2022/08/04 04:22:04;;;;;;;34.15;17.77;;;18.90;99.90;;;;;;5032176;28;20056;-71
2022/08/04 04:24:39;;;;;;;28.98;17.13;;;19.00;99.90;;;;;;5039321;28;20245;-70
2022/08/04 04:27:11;;;;;;;32.58;18.65;;;19.10;99.90;;;;;;5034195;28;20033;-71
2022/08/04 04:29:49;;;;;;;35.05;18.95;;;19.00;99.90;;;;;;5013604;28;20653;-70
2022/08/04 04:32:54;;;;;;;30.23;18.25;;;19.20;99.90;;;;;;5034135;28;20582;-70
2022/08/04 04:35:41;;;;;;;30.63;17.48;;;19.30;99.90;;;;;;5017397;28;20056;-70
2022/08/04 04:38:43;;;;;;;33.35;18.25;;;19.40;99.90;;;;;;5038901;28;20043;-70
2022/08/04 04:41:40;;;;;;;31.55;17.88;;;19.40;99.90;;;;;;5035514;28;20040;-71
2022/08/04 04:44:23;;;;;;;27.50;16.45;;;19.30;99.90;;;;;;5005433;28;20652;-70
2022/08/04 04:47:14;;;;;;;29.13;17.08;;;19.30;99.90;;;;;;5034608;28;20080;-70
2022/08/04 04:49:53;;;;;;;27.83;16.30;;;19.50;99.90;;;;;;5024622;28;20099;-71
2022/08/04 04:52:57;;;;;;;29.20;16.80;;;19.50;99.90;;;;;;5034271;28;20102;-71
2022/08/04 04:55:38;;;;;;;27.40;16.10;;;19.50;99.90;;;;;;5003706;28;20587;-69
2022/08/04 04:58:04;;;;;;;26.08;15.02;;;19.70;99.90;;;;;;5036215;28;20037;-71
2022/08/04 05:00:55;;;;;;;26.75;15.15;;;19.60;99.90;;;;;;5037624;28;20056;-70
2022/08/04 05:03:31;;;;;;;23.73;15.48;;;19.70;99.90;;;;;;5038159;28;20060;-70
2022/08/04 05:06:09;;;;;;;26.48;15.23;;;19.80;99.90;;;;;;5019252;28;20044;-70
2022/08/04 05:09:15;;;;;;;26.33;15.77;;;20.00;99.90;;;;;;5037109;28;20118;-70
2022/08/04 05:11:53;;;;;;;32.90;15.70;;;19.90;99.90;;;;;;5005086;28;20205;-70
2022/08/04 05:14:30;;;;;;;26.45;15.23;;;20.00;99.90;;;;;;5028362;28;20124;-70
2022/08/04 05:17:04;;;;;;;24.65;14.77;;;20.30;99.90;;;;;;5031657;28;20719;-70
2022/08/04 05:19:42;;;;;;;25.13;14.20;;;20.40;99.90;;;;;;5036041;28;20535;-72
2022/08/04 05:22:12;;;;;;;29.90;15.05;;;20.50;99.90;;;;;;5018368;28;20080;-69
2022/08/04 05:24:41;;;;;;;22.27;13.80;;;20.60;99.90;;;;;;5018895;28;20083;-71
2022/08/04 05:27:23;;;;;;;27.17;14.55;;;20.60;99.90;;;;;;5001089;28;20044;-70
2022/08/04 05:29:59;;;;;;;28.05;14.75;;;20.80;99.90;;;;;;5037290;28;20037;-70
2022/08/04 05:32:36;;;;;;;26.58;14.07;;;20.90;99.90;;;;;;5021324;28;20565;-70
2022/08/04 05:35:09;;;;;;;25.92;13.52;;;21.00;99.90;;;;;;5035221;28;20689;-72
2022/08/04 05:37:37;;;;;;;22.07;12.73;;;21.10;99.90;;;;;;5038779;28;20059;-70
2022/08/04 05:40:06;;;;;;;25.08;12.60;;;21.30;99.90;;;;;;5034342;28;20077;-69
2022/08/04 05:42:38;;;;;;;22.77;11.98;;;21.60;99.90;;;;;;5039572;28;20036;-70
2022/08/04 05:45:06;;;;;;;25.53;12.17;;;21.80;99.90;;;;;;5039535;28;20036;-69
2022/08/04 05:47:33;;;;;;;22.75;11.00;;;22.10;99.90;;;;;;5043900;28;20706;-71
2022/08/04 05:50:01;;;;;;;22.23;11.00;;;22.30;99.90;;;;;;5039169;28;20048;-71
2022/08/04 05:52:28;;;;;;;19.92;10.27;;;22.50;99.90;;;;;;5008649;28;20033;-70
2022/08/04 05:54:55;;;;;;;19.60;9.23;;;22.70;99.90;;;;;;5030585;28;20654;-70
2022/08/04 05:57:21;;;;;;;20.00;8.60;;;22.90;99.90;;;;;;5046394;28;20040;-70
2022/08/04 05:59:49;;;;;;;23.08;8.10;;;23.00;99.90;;;;;;5039345;28;20047;-73
2022/08/04 06:02:18;;;;;;;14.80;8.57;;;23.10;99.90;;;;;;5026330;28;20060;-70
2022/08/04 06:04:49;;;;;;;17.13;7.35;;;23.30;99.90;;;;;;5036391;28;20090;-73
2022/08/04 06:07:15;;;;;;;17.08;7.00;;;23.50;99.90;;;;;;5029451;28;20048;-71
2022/08/04 06:09:41;;;;;;;17.35;6.97;;;23.70;99.90;;;;;;5046935;28;20045;-70
2022/08/04 06:12:13;;;;;;;15.07;7.60;;;23.80;99.90;;;;;;5035374;28;20134;-71
2022/08/04 06:14:42;;;;;;;16.58;8.77;;;23.70;99.90;;;;;;5040122;28;20048;-72
2022/08/04 06:17:10;;;;;;;16.30;8.18;;;23.70;99.90;;;;;;5040173;28;20600;-71
2022/08/04 06:19:39;;;;;;;19.50;8.70;;;23.80;99.90;;;;;;5038320;28;20567;-69
2022/08/04 06:22:07;;;;;;;15.65;7.95;;;23.70;99.90;;;;;;5018737;28;20060;-71
2022/08/04 06:24:36;;;;;;;18.85;8.32;;;23.70;99.90;;;;;;5047517;28;20053;-71
2022/08/04 06:27:03;;;;;;;17.52;8.23;;;24.00;99.90;;;;;;5036327;28;20068;-69
2022/08/04 06:29:37;;;;;;;18.98;8.70;;;24.10;99.90;;;;;;5007018;28;20522;-69
2022/08/04 06:35:06;;;;;;;18.03;7.50;;;24.50;99.90;;;;;;4969598;28;20046;-71
2022/08/04 06:37:35;;;;;;;16.70;7.47;;;24.60;99.90;;;;;;5001727;28;20329;-70
2022/08/04 06:40:02;;;;;;;17.83;7.32;;;24.80;99.90;;;;;;5031940;28;20045;-69
2022/08/04 06:42:30;;;;;;;17.50;7.07;;;25.00;99.90;;;;;;5021506;28;20757;-72
2022/08/04 06:45:00;;;;;;;13.77;7.03;;;25.20;99.90;;;;;;5030962;28;20451;-70
2022/08/04 06:47:28;;;;;;;17.23;7.13;;;25.30;99.90;;;;;;5019309;28;20149;-70
2022/08/04 06:49:55;;;;;;;15.65;7.00;;;25.30;99.90;;;;;;5038317;28;20484;-71
2022/08/04 06:52:21;;;;;;;14.50;6.55;;;25.20;99.90;;;;;;5036693;28;20052;-70
2022/08/04 06:54:50;;;;;;;17.27;6.82;;;25.00;99.90;;;;;;5038482;28;20095;-70
2022/08/04 06:57:25;;;;;;;10.95;5.82;;;24.70;99.90;;;;;;5040710;28;20071;-73
2022/08/04 06:59:58;;;;;;;11.70;4.95;;;24.60;99.90;;;;;;5040061;28;20040;-70
2022/08/04 07:02:27;;;;;;;12.60;5.68;;;24.40;99.90;;;;;;5019615;28;20100;-70
2022/08/04 07:04:53;;;;;;;16.67;5.72;;;24.30;99.90;;;;;;5034790;28;20045;-70
2022/08/04 07:07:19;;;;;;;13.63;5.53;;;24.40;99.90;;;;;;5036823;28;20798;-70
2022/08/04 07:09:45;;;;;;;11.82;5.07;;;24.50;99.90;;;;;;5037123;28;20041;-71
2022/08/04 07:12:12;;;;;;;15.38;4.22;;;24.60;99.90;;;;;;5043091;28;20049;-69
2022/08/04 07:14:39;;;;;;;12.18;4.15;;;24.70;99.90;;;;;;5047420;28;20563;-70
2022/08/04 07:17:08;;;;;;;10.77;4.22;;;24.90;99.90;;;;;;5039668;28;20127;-71
2022/08/04 07:19:37;;;;;;;15.55;4.47;;;25.00;99.90;;;;;;5037357;28;20580;-68
2022/08/04 07:22:05;;;;;;;10.02;4.25;;;25.10;99.90;;;;;;5039599;28;20136;-68
2022/08/04 07:24:32;;;;;;;15.32;3.78;;;25.20;99.90;;;;;;5019884;28;20045;-69
2022/08/04 07:26:59;;;;;;;8.88;3.17;;;25.40;99.90;;;;;;5026694;28;20076;-70
2022/08/04 07:29:25;;;;;;;11.93;4.20;;;25.60;99.90;;;;;;5039637;28;20616;-66
2022/08/04 07:31:52;;;;;;;11.30;3.50;;;25.60;99.90;;;;;;5040195;28;20041;-67
2022/08/04 07:34:18;;;;;;;11.05;3.45;;;25.50;99.90;;;;;;5023240;28;20408;-68
2022/08/04 07:36:44;;;;;;;8.95;3.42;;;25.50;99.90;;;;;;5031148;28;20049;-67
2022/08/04 07:39:10;;;;;;;10.98;3.75;;;25.70;99.90;;;;;;5023106;28;20109;-68
2022/08/04 07:41:36;;;;;;;10.60;3.13;;;26.20;99.90;;;;;;5038834;28;20282;-67
2022/08/04 07:44:03;;;;;;;9.50;2.63;;;26.50;99.90;;;;;;5012266;28;20681;-69
2022/08/04 07:46:29;;;;;;;14.10;2.97;;;26.60;99.90;;;;;;5036095;28;20085;-68
2022/08/04 07:48:55;;;;;;;10.80;3.20;;;27.10;99.90;;;;;;5021325;28;20743;-69
2022/08/04 07:51:22;;;;;;;7.07;2.53;;;27.10;99.90;;;;;;5051524;28;20044;-68
2022/08/04 07:53:48;;;;;;;12.25;2.67;;;27.10;99.90;;;;;;5045467;28;20068;-67
2022/08/04 07:56:15;;;;;;;9.15;2.55;;;27.10;99.90;;;;;;5048568;28;20040;-67
2022/08/04 07:58:41;;;;;;;6.78;2.45;;;27.20;99.90;;;;;;5026871;28;20098;-69
2022/08/04 08:01:08;;;;;;;6.30;2.17;;;27.20;99.90;;;;;;5027535;28;20127;-67
2022/08/04 08:03:34;;;;;;;9.23;2.03;;;27.20;99.90;;;;;;5016783;28;20068;-71
2022/08/04 08:06:00;;;;;;;10.93;1.98;;;27.20;99.90;;;;;;5051248;28;20628;-68
2022/08/04 08:08:26;;;;;;;7.60;2.15;;;27.50;99.90;;;;;;5031670;28;20052;-69
2022/08/04 08:10:52;;;;;;;10.45;2.00;;;27.70;99.90;;;;;;5031507;28;20056;-76
2022/08/04 08:13:18;;;;;;;8.73;2.22;;;27.90;99.90;;;;;;5016411;28;20049;-69
2022/08/04 08:15:45;;;;;;;10.98;1.77;;;28.20;99.90;;;;;;5033042;28;20665;-71
2022/08/04 08:18:12;;;;;;;7.43;1.77;;;28.40;99.90;;;;;;5024865;28;20057;-69
2022/08/04 08:20:38;;;;;;;7.40;1.52;;;28.50;99.90;;;;;;5013748;28;20044;-71
2022/08/04 08:23:06;;;;;;;14.35;1.55;;;28.60;99.90;;;;;;5044163;28;20458;-69
2022/08/04 08:25:33;;;;;;;6.70;1.30;;;28.90;99.90;;;;;;5043917;28;20123;-68
2022/08/04 08:28:01;;;;;;;7.88;1.65;;;29.10;99.90;;;;;;5018289;28;20052;-70
2022/08/04 08:30:27;;;;;;;7.97;1.42;;;29.10;99.90;;;;;;5001159;28;20510;-71
2022/08/04 08:32:53;;;;;;;8.73;1.38;;;29.30;99.90;;;;;;5023783;28;20040;-69
2022/08/04 08:35:21;;;;;;;8.98;1.40;;;29.60;99.90;;;;;;5039502;28;20098;-71
2022/08/04 08:37:55;;;;;;;9.57;1.30;;;29.80;99.90;;;;;;5024629;28;20518;-71
2022/08/04 08:40:34;;;;;;;3.97;0.90;;;29.80;99.90;;;;;;5016404;28;20093;-67
2022/08/04 08:43:53;;;;;;;7.15;1.10;;;29.80;99.90;;;;;;5030325;28;20661;-68
2022/08/04 08:46:50;;;;;;;6.82;1.40;;;29.50;99.90;;;;;;4986322;28;20125;-69
2022/08/04 08:49:28;;;;;;;8.20;1.48;;;29.60;99.90;;;;;;5024025;28;20103;-69
2022/08/04 08:52:11;;;;;;;6.53;0.95;;;29.40;99.90;;;;;;5038424;28;20033;-68
2022/08/04 08:55:04;;;;;;;7.22;1.42;;;29.50;99.90;;;;;;5019100;28;20119;-69
2022/08/04 08:57:39;;;;;;;6.57;1.30;;;29.50;99.90;;;;;;5025770;28;20939;-68
2022/08/04 09:00:37;;;;;;;6.07;1.05;;;29.80;99.90;;;;;;5031757;28;20576;-68
2022/08/04 09:03:15;;;;;;;7.60;1.00;;;29.70;99.90;;;;;;4999213;28;20056;-68
2022/08/04 09:06:16;;;;;;;8.20;1.40;;;29.90;99.90;;;;;;5040787;28;20455;-67
2022/08/04 09:08:48;;;;;;;4.80;1.30;;;30.10;99.90;;;;;;5012228;28;20461;-70
2022/08/04 09:11:24;;;;;;;6.95;1.55;;;30.20;99.90;;;;;;5035213;28;20037;-69
2022/08/04 09:13:55;;;;;;;3.88;1.20;;;30.10;99.90;;;;;;5021252;28;20082;-68
2022/08/04 09:16:32;;;;;;;9.05;1.25;;;30.20;99.90;;;;;;5039169;28;20052;-71
2022/08/04 09:19:30;;;;;;;7.90;1.48;;;30.50;99.90;;;;;;5042655;28;20140;-67
2022/08/04 09:22:18;;;;;;;8.40;1.55;;;30.80;99.90;;;;;;5016796;28;20056;-71
2022/08/04 09:24:49;;;;;;;6.43;1.10;;;30.90;99.90;;;;;;5030922;28;20041;-69
2022/08/04 09:27:21;;;;;;;5.70;1.27;;;30.60;99.90;;;;;;5030903;28;20057;-67
2022/08/04 09:30:17;;;;;;;11.00;1.63;;;30.90;99.90;;;;;;5043110;28;20052;-69
2022/08/04 09:32:57;;;;;;;5.60;1.40;;;30.90;99.90;;;;;;5017090;28;20056;-70
2022/08/04 09:35:36;;;;;;;8.80;1.60;;;30.70;99.90;;;;;;4995520;28;20471;-67
2022/08/04 09:38:15;;;;;;;7.85;1.52;;;30.80;99.90;;;;;;5016380;28;20678;-69
2022/08/04 09:40:48;;;;;;;10.35;2.28;;;31.00;99.90;;;;;;5048402;28;20090;-70
2022/08/04 09:43:19;;;;;;;6.90;2.60;;;31.20;99.90;;;;;;5021443;28;20230;-70
2022/08/04 09:46:03;;;;;;;9.13;3.10;;;30.90;99.90;;;;;;5004412;28;20036;-67
2022/08/04 09:48:51;;;;;;;9.30;2.90;;;31.20;99.90;;;;;;5037437;28;20048;-68
2022/08/04 09:51:42;;;;;;;5.72;2.50;;;31.00;99.90;;;;;;5032197;28;20051;-69
2022/08/04 09:54:34;;;;;;;6.88;2.63;;;31.10;99.90;;;;;;5044514;28;20044;-69
2022/08/04 09:57:13;;;;;;;6.95;3.25;;;30.60;99.90;;;;;;5015074;28;20049;-69
2022/08/04 09:59:44;;;;;;;9.10;3.10;;;30.10;99.90;;;;;;5033718;28;20554;-68
2022/08/04 10:02:14;;;;;;;8.45;3.22;;;30.20;99.90;;;;;;5030285;28;20045;-69
2022/08/04 10:04:42;;;;;;;8.55;2.67;;;29.90;99.90;;;;;;5032950;28;20049;-69
2022/08/04 10:07:35;;;;;;;6.60;3.00;;;30.40;99.90;;;;;;5048897;28;20525;-70
2022/08/04 10:10:31;;;;;;;7.10;3.13;;;30.80;99.90;;;;;;5037006;28;20056;-69
2022/08/04 10:13:39;;;;;;;7.57;2.85;;;30.70;99.90;;;;;;5010342;28;20049;-69
2022/08/04 10:16:27;;;;;;;9.00;3.17;;;30.20;99.90;;;;;;5050118;28;20064;-70
2022/08/04 10:19:30;;;;;;;11.07;3.08;;;30.00;99.90;;;;;;5038569;28;20045;-69
2022/08/04 10:22:19;;;;;;;10.82;2.90;;;30.10;99.90;;;;;;5034112;28;20126;-72
2022/08/04 10:25:23;;;;;;;8.73;2.33;;;30.40;99.90;;;;;;5026177;28;20045;-69
2022/08/04 10:27:54;;;;;;;7.70;1.90;;;30.60;99.90;;;;;;5044610;28;20421;-69
2022/08/04 10:30:20;;;;;;;7.72;1.98;;;31.00;99.90;;;;;;5015686;28;20084;-70
2022/08/04 10:32:54;;;;;;;8.85;2.00;;;30.90;99.80;;;;;;5014411;28;20499;-70
2022/08/04 10:35:23;;;;;;;7.22;1.50;;;31.20;97.60;;;;;;5026767;28;20118;-69
2022/08/04 10:38:14;;;;;;;5.60;1.50;;;31.30;98.00;;;;;;5042638;28;20052;-69
2022/08/04 10:40:45;;;;;;;8.98;1.50;;;30.30;98.60;;;;;;5045329;28;20678;-68
2022/08/04 10:43:23;;;;;;;4.95;1.25;;;30.60;98.70;;;;;;5025958;28;20548;-69
2022/08/04 10:46:00;;;;;;;5.68;1.30;;;30.50;98.30;;;;;;5037501;28;20043;-69
2022/08/04 10:48:53;;;;;;;6.85;1.23;;;29.90;99.90;;;;;;5054164;28;20036;-69
2022/08/04 10:51:29;;;;;;;4.90;1.45;;;30.20;99.90;;;;;;5041190;28;20053;-69
2022/08/04 10:54:01;;;;;;;7.00;1.58;;;30.50;99.50;;;;;;5050720;28;20084;-69
2022/08/04 10:56:50;;;;;;;4.90;1.17;;;30.80;99.20;;;;;;5033638;28;20048;-69
2022/08/04 10:59:42;;;;;;;3.95;1.50;;;31.30;98.60;;;;;;5022111;28;20049;-68
2022/08/04 11:02:40;;;;;;;5.78;1.20;;;31.60;96.70;;;;;;5028806;28;20045;-71
2022/08/04 11:05:14;;;;;;;9.45;1.02;;;31.30;94.80;;;;;;5006046;28;20052;-71
2022/08/04 11:07:44;;;;;;;6.57;0.82;;;31.10;94.70;;;;;;5035876;28;20080;-68
2022/08/04 11:10:12;;;;;;;5.15;0.85;;;30.90;95.30;;;;;;5038421;28;20057;-69
2022/08/04 11:12:41;;;;;;;5.50;0.90;;;30.90;94.50;;;;;;5022186;28;20090;-68
2022/08/04 11:15:12;;;;;;;3.85;0.85;;;30.50;95.60;;;;;;5013863;28;20041;-69
2022/08/04 11:17:42;;;;;;;5.53;0.73;;;30.60;95.10;;;;;;5006974;28;20059;-70
2022/08/04 11:20:20;;;;;;;5.35;0.63;;;30.70;95.70;;;;;;5051027;28;20048;-68
2022/08/04 11:23:01;;;;;;;4.72;0.70;;;30.40;95.00;;;;;;5051463;28;20079;-68
2022/08/04 11:25:42;;;;;;;4.53;0.60;;;30.20;97.90;;;;;;5039949;28;20079;-67
2022/08/04 11:28:40;;;;;;;5.22;0.80;;;29.70;99.90;;;;;;5033346;28;20624;-67
2022/08/04 11:31:13;;;;;;;4.18;0.60;;;30.10;99.90;;;;;;5038651;28;20091;-67
2022/08/04 11:34:03;;;;;;;6.20;0.80;;;30.80;99.90;;;;;;5026858;28;20052;-68
2022/08/04 11:36:53;;;;;;;8.02;0.82;;;30.70;99.90;;;;;;5039794;28;20148;-69
2022/08/04 11:39:34;;;;;;;5.05;0.30;;;30.50;99.90;;;;;;5012506;28;20045;-69
2022/08/04 11:42:24;;;;;;;2.25;0.30;;;30.10;99.90;;;;;;5034312;28;20048;-67
2022/08/04 11:45:15;;;;;;;3.08;0.35;;;29.80;99.90;;;;;;5029767;28;20500;-68
2022/08/04 11:47:50;;;;;;;2.35;0.30;;;29.10;99.90;;;;;;5033393;28;20128;-68
2022/08/04 11:50:49;;;;;;;2.15;0.30;;;28.80;99.90;;;;;;5042342;28;20132;-68
2022/08/04 11:53:20;;;;;;;3.47;0.28;;;29.10;99.90;;;;;;5035527;28;20730;-67
2022/08/04 11:55:51;;;;;;;6.55;0.40;;;29.30;99.90;;;;;;5046688;28;20466;-68
2022/08/04 11:58:17;;;;;;;2.22;0.30;;;29.30;99.90;;;;;;5016678;28;20962;-69
2022/08/04 12:01:15;;;;;;;2.60;0.35;;;29.00;99.90;;;;;;5046800;28;20123;-68
2022/08/04 12:04:06;;;;;;;4.10;0.30;;;28.60;99.90;;;;;;5036778;28;20041;-70
2022/08/04 12:06:41;;;;;;;3.55;0.30;;;28.40;99.90;;;;;;4998955;28;20487;-70
2022/08/04 12:09:06;;;;;;;5.25;0.50;;;28.50;99.90;;;;;;5035337;28;20051;-68
2022/08/04 12:11:50;;;;;;;4.07;0.45;;;28.40;99.90;;;;;;5036610;28;20048;-67
2022/08/04 12:14:27;;;;;;;4.13;0.45;;;27.80;99.90;;;;;;5021044;28;20047;-67
2022/08/04 12:17:03;;;;;;;3.60;0.40;;;27.30;99.90;;;;;;5043265;28;20045;-70
2022/08/04 12:19:36;;;;;;;3.60;0.30;;;27.60;99.90;;;;;;5040204;28;20424;-67
2022/08/04 12:22:20;;;;;;;3.15;0.30;;;27.70;99.90;;;;;;5042982;28;20127;-68
2022/08/04 12:24:53;;;;;;;3.70;0.40;;;27.70;99.90;;;;;;5042436;28;20140;-69
2022/08/04 12:27:40;;;;;;;2.65;0.40;;;27.90;99.90;;;;;;5018942;28;20048;-71
2022/08/04 12:30:06;;;;;;;3.17;0.22;;;27.50;99.90;;;;;;5038987;28;20054;-70
2022/08/04 12:32:44;;;;;;;4.63;0.30;;;27.40;99.90;;;;;;5002669;28;20128;-69
2022/08/04 12:35:20;;;;;;;2.65;0.28;;;27.40;99.90;;;;;;5042197;28;20122;-67
2022/08/04 12:37:50;;;;;;;4.10;0.22;;;27.40;99.90;;;;;;5042744;28;20140;-69
2022/08/04 12:40:24;;;;;;;2.50;0.30;;;27.40;99.90;;;;;;5039188;28;20677;-69
2022/08/04 12:43:00;;;;;;;2.17;0.22;;;27.20;99.90;;;;;;5030145;28;20041;-70
2022/08/04 12:45:28;;;;;;;5.45;0.30;;;27.20;99.90;;;;;;5037863;28;20045;-69
2022/08/04 12:47:57;;;;;;;4.13;0.30;;;27.10;99.90;;;;;;5022753;28;20052;-70
2022/08/04 12:50:23;;;;;;;3.15;0.25;;;26.70;99.90;;;;;;5034202;28;20037;-71
2022/08/04 12:52:53;;;;;;;2.58;0.40;;;26.80;99.90;;;;;;5020580;28;20044;-71
2022/08/04 12:55:22;;;;;;;2.65;0.40;;;26.70;99.90;;;;;;5023375;28;20044;-68
2022/08/04 12:57:51;;;;;;;2.28;0.30;;;26.40;99.90;;;;;;5028024;28;20048;-70
2022/08/04 13:00:28;;;;;;;1.48;0.20;;;26.20;99.90;;;;;;5044261;28;20040;-68
2022/08/04 13:02:57;;;;;;;5.10;0.47;;;26.10;99.90;;;;;;5038303;28;20083;-71
2022/08/04 13:05:26;;;;;;;3.50;0.35;;;26.00;99.90;;;;;;4998137;28;20044;-73
2022/08/04 13:07:53;;;;;;;4.55;0.30;;;26.00;99.90;;;;;;5014227;28;20140;-71
2022/08/04 13:10:21;;;;;;;3.60;0.30;;;25.90;99.90;;;;;;5040659;28;20522;-70
2022/08/04 13:13:17;;;;;;;3.33;0.30;;;26.00;99.90;;;;;;5024398;28;20045;-69
2022/08/04 13:15:54;;;;;;;4.75;0.30;;;26.10;99.90;;;;;;5033361;28;20181;-68
2022/08/04 13:18:21;;;;;;;2.60;0.40;;;26.00;99.90;;;;;;5041888;28;20041;-69
2022/08/04 13:20:47;;;;;;;3.10;0.40;;;26.20;99.90;;;;;;5021844;28;20639;-68
2022/08/04 13:23:17;;;;;;;2.63;0.40;;;26.00;99.90;;;;;;4999944;28;20071;-69
2022/08/04 13:25:46;;;;;;;4.35;0.50;;;26.20;99.90;;;;;;5032670;28;20051;-68
2022/08/04 13:28:18;;;;;;;2.97;0.30;;;26.50;99.90;;;;;;5043284;28;20127;-71
2022/08/04 13:30:46;;;;;;;5.38;0.30;;;27.00;99.90;;;;;;5039308;28;20045;-69
2022/08/04 13:33:15;;;;;;;2.58;0.30;;;27.00;99.90;;;;;;5041570;28;20447;-70